createdAt,value
2023-02-12T00:02:24.623Z,12.61
2023-02-12T00:04:51.079Z,12.48
2023-02-12T00:07:17.796Z,12.42
2023-02-12T00:09:44.499Z,12.42
2023-02-12T00:12:10.940Z,12.56
2023-02-12T00:14:37.926Z,12.82
2023-02-12T00:17:04.604Z,12.75
2023-02-12T00:19:31.163Z,12.81
2023-02-12T00:21:57.735Z,12.86
2023-02-12T00:24:24.267Z,12.86
2023-02-12T00:26:51.029Z,12.83
2023-02-12T00:29:17.473Z,12.65
2023-02-12T00:31:44.126Z,12.50
2023-02-12T00:34:11.398Z,12.41
2023-02-12T00:36:37.981Z,12.47
2023-02-12T00:39:04.785Z,12.71
2023-02-12T00:41:31.510Z,12.40
2023-02-12T00:43:58.177Z,12.43
2023-02-12T00:46:24.738Z,12.63
2023-02-12T00:48:51.544Z,12.61
2023-02-12T00:51:17.964Z,12.33
2023-02-12T00:53:44.405Z,12.26
2023-02-12T00:56:10.838Z,12.22
2023-02-12T00:58:37.273Z,11.99
2023-02-12T01:01:03.789Z,12.27
2023-02-12T01:03:30.319Z,12.02
2023-02-12T01:05:57.743Z,11.99
2023-02-12T01:08:24.563Z,12.17
2023-02-12T01:10:59.429Z,12.03
2023-02-12T01:13:26.850Z,12.23
2023-02-12T01:16:03.842Z,11.84
2023-02-12T01:18:30.585Z,12.28
2023-02-12T01:20:58.958Z,12.41
2023-02-12T01:23:25.707Z,12.26
2023-02-12T01:25:52.606Z,12.25
2023-02-12T01:28:19.400Z,11.98
2023-02-12T01:30:46.018Z,12.30
2023-02-12T01:33:12.483Z,12.37
2023-02-12T01:35:39.200Z,12.36
2023-02-12T01:38:05.702Z,12.38
2023-02-12T01:40:32.132Z,12.59
2023-02-12T01:43:01.637Z,12.49
2023-02-12T01:45:41.116Z,12.42
2023-02-12T01:48:08.066Z,12.53
2023-02-12T01:50:34.585Z,12.20
2023-02-12T01:53:01.069Z,12.35
2023-02-12T01:55:27.800Z,12.50
2023-02-12T01:57:54.250Z,12.57
2023-02-12T02:00:23.605Z,12.55
2023-02-12T02:02:54.100Z,12.46
2023-02-12T02:05:31.587Z,12.08
2023-02-12T02:07:58.177Z,12.45
2023-02-12T02:10:24.882Z,12.23
2023-02-12T02:13:09.947Z,12.43
2023-02-12T02:15:37.115Z,12.46
2023-02-12T02:18:21.768Z,12.53
2023-02-12T02:21:06.273Z,12.26
2023-02-12T02:23:59.480Z,12.47
2023-02-12T02:26:32.587Z,12.57
2023-02-12T02:29:21.211Z,12.40
2023-02-12T02:31:56.810Z,12.35
2023-02-12T02:34:34.457Z,12.28
2023-02-12T02:37:14.036Z,12.49
2023-02-12T02:39:56.224Z,12.52
2023-02-12T02:42:45.604Z,12.63
2023-02-12T02:45:26.153Z,12.68
2023-02-12T02:48:00.500Z,12.57
2023-02-12T02:50:28.704Z,12.60
2023-02-12T02:53:01.333Z,12.62
2023-02-12T02:55:32.522Z,12.38
2023-02-12T02:58:02.860Z,12.34
2023-02-12T03:00:37.368Z,12.21
2023-02-12T03:03:43.761Z,12.18
2023-02-12T03:06:23.685Z,12.11
2023-02-12T03:08:55.088Z,12.25
2023-02-12T03:11:27.938Z,12.03
2023-02-12T03:13:59.618Z,12.13
2023-02-12T03:16:30.887Z,12.29
2023-02-12T03:19:08.453Z,12.40
2023-02-12T03:21:43.442Z,12.38
2023-02-12T03:24:19.368Z,12.20
2023-02-12T03:26:50.020Z,12.10
2023-02-12T03:29:16.717Z,12.36
2023-02-12T03:32:07.497Z,12.33
2023-02-12T03:34:59.292Z,12.40
2023-02-12T03:37:32.249Z,12.12
2023-02-12T03:40:35.326Z,12.23
2023-02-12T03:43:10.764Z,12.20
2023-02-12T03:45:43.513Z,12.16
2023-02-12T03:48:33.995Z,12.33
2023-02-12T03:51:04.941Z,12.02
2023-02-12T03:53:31.917Z,12.31
2023-02-12T03:56:11.938Z,12.32
2023-02-12T03:58:38.950Z,12.31
2023-02-12T04:01:05.962Z,12.21
2023-02-12T04:03:32.672Z,12.31
2023-02-12T04:05:59.138Z,12.43
2023-02-12T04:08:27.467Z,12.27
2023-02-12T04:11:20.856Z,12.18
2023-02-12T04:14:13.041Z,12.34
2023-02-12T04:16:52.520Z,12.48
2023-02-12T04:19:29.517Z,12.33
2023-02-12T04:22:18.215Z,12.58
2023-02-12T04:25:03.944Z,12.58
2023-02-12T04:27:58.419Z,12.66
2023-02-12T04:30:32.498Z,12.52
2023-02-12T04:33:07.781Z,12.54
2023-02-12T04:36:01.514Z,12.42
2023-02-12T04:38:36.446Z,12.57
2023-02-12T04:41:05.734Z,12.51
2023-02-12T04:43:37.505Z,12.61
2023-02-12T04:46:05.847Z,12.49
2023-02-12T04:48:32.572Z,12.51
2023-02-12T04:50:58.993Z,12.40
2023-02-12T04:53:25.723Z,12.52
2023-02-12T04:55:52.302Z,12.59
2023-02-12T04:58:19.348Z,12.55
2023-02-12T05:00:45.727Z,12.44
2023-02-12T05:03:12.444Z,12.51
2023-02-12T05:05:38.856Z,12.56
2023-02-12T05:08:05.376Z,12.56
2023-02-12T05:10:31.766Z,12.69
2023-02-12T05:12:58.206Z,12.61
2023-02-12T05:15:24.694Z,12.60
2023-02-12T05:17:51.297Z,12.46
2023-02-12T05:20:17.905Z,12.53
2023-02-12T05:22:44.473Z,12.57
2023-02-12T05:25:11.868Z,12.62
2023-02-12T05:27:38.509Z,12.52
2023-02-12T05:30:06.104Z,12.67
2023-02-12T05:32:32.823Z,12.67
2023-02-12T05:34:59.229Z,12.71
2023-02-12T05:37:26.016Z,12.64
2023-02-12T05:39:52.464Z,12.57
2023-02-12T05:42:18.947Z,12.45
2023-02-12T05:44:45.372Z,12.48
2023-02-12T05:47:12.056Z,12.34
2023-02-12T05:49:38.605Z,12.32
2023-02-12T05:52:05.115Z,12.41
2023-02-12T05:54:31.718Z,12.46
2023-02-12T05:56:58.152Z,12.59
2023-02-12T05:59:24.587Z,12.58
2023-02-12T06:01:52.034Z,12.47
2023-02-12T06:04:23.481Z,12.43
2023-02-12T06:06:50.907Z,12.37
2023-02-12T06:09:17.379Z,12.53
2023-02-12T06:11:44.046Z,12.42
2023-02-12T06:14:14.144Z,12.31
2023-02-12T06:16:40.827Z,12.30
2023-02-12T06:19:07.493Z,12.24
2023-02-12T06:21:34.189Z,12.29
2023-02-12T06:24:01.303Z,12.25
2023-02-12T06:26:27.972Z,12.30
2023-02-12T06:28:54.516Z,12.30
2023-02-12T06:31:24.484Z,12.55
2023-02-12T06:33:52.163Z,12.36
2023-02-12T06:36:19.061Z,12.49
2023-02-12T06:38:45.669Z,12.39
2023-02-12T06:41:12.352Z,12.31
2023-02-12T06:43:39.027Z,12.44
2023-02-12T06:46:05.884Z,12.51
2023-02-12T06:48:32.353Z,12.42
2023-02-12T06:51:16.308Z,12.54
2023-02-12T06:53:43.263Z,12.60
2023-02-12T06:56:11.665Z,12.49
2023-02-12T06:58:44.049Z,12.61
2023-02-12T07:01:25.332Z,12.56
2023-02-12T07:03:54.716Z,12.48
2023-02-12T07:06:22.025Z,12.57
2023-02-12T07:08:48.855Z,12.76
2023-02-12T07:11:15.677Z,12.61
2023-02-12T07:13:42.617Z,12.73
2023-02-12T07:16:11.742Z,12.71
2023-02-12T07:18:38.771Z,12.46
2023-02-12T07:21:06.553Z,12.69
2023-02-12T07:23:33.944Z,12.57
2023-02-12T07:26:03.907Z,12.60
2023-02-12T07:28:33.965Z,12.73
2023-02-12T07:31:14.709Z,12.65
2023-02-12T07:33:41.683Z,12.65
2023-02-12T07:36:11.581Z,12.70
2023-02-12T07:38:39.938Z,12.72
2023-02-12T07:41:17.000Z,12.74
2023-02-12T07:43:45.033Z,12.76
2023-02-12T07:46:14.616Z,12.81
2023-02-12T07:48:41.192Z,12.78
2023-02-12T07:51:10.352Z,12.81
2023-02-12T07:53:37.533Z,12.87
2023-02-12T07:56:13.466Z,12.85
2023-02-12T07:58:41.410Z,12.90
2023-02-12T08:01:15.260Z,12.87
2023-02-12T08:03:42.007Z,12.69
2023-02-12T08:06:13.711Z,12.78
2023-02-12T08:08:40.440Z,12.91
2023-02-12T08:11:08.380Z,13.03
2023-02-12T08:13:36.088Z,12.96
2023-02-12T08:16:04.795Z,13.11
2023-02-12T08:18:32.623Z,13.16
2023-02-12T08:21:09.363Z,13.27
2023-02-12T08:23:35.940Z,13.08
2023-02-12T08:26:09.208Z,13.23
2023-02-12T08:28:36.095Z,13.16
2023-02-12T08:31:04.035Z,13.00
2023-02-12T08:33:30.878Z,13.14
2023-02-12T08:36:06.344Z,13.27
2023-02-12T08:38:33.571Z,13.05
2023-02-12T08:41:05.361Z,13.05
2023-02-12T08:43:31.873Z,13.20
2023-02-12T08:46:06.436Z,13.15
2023-02-12T08:48:33.360Z,13.20
2023-02-12T08:51:13.462Z,13.01
2023-02-12T08:53:41.411Z,13.25
2023-02-12T08:56:08.593Z,13.14
2023-02-12T08:58:36.090Z,13.08
2023-02-12T09:01:03.693Z,13.10
2023-02-12T09:03:30.680Z,13.04
2023-02-12T09:05:57.521Z,13.06
2023-02-12T09:08:24.474Z,13.07
2023-02-12T09:10:50.884Z,13.42
2023-02-12T09:13:17.301Z,13.58
2023-02-12T09:15:45.129Z,13.57
2023-02-12T09:18:12.742Z,13.65
2023-02-12T09:20:41.203Z,13.82
2023-02-12T09:23:09.253Z,14.12
2023-02-12T09:25:40.004Z,13.70
2023-02-12T09:28:06.454Z,13.73
2023-02-12T09:30:33.080Z,13.31
2023-02-12T09:32:59.670Z,13.49
2023-02-12T09:35:26.279Z,13.72
2023-02-12T09:37:53.359Z,13.86
2023-02-12T09:40:41.129Z,13.58
2023-02-12T09:43:42.653Z,13.91
2023-02-12T09:46:31.798Z,13.79
2023-02-12T09:49:11.410Z,14.07
2023-02-12T09:51:39.465Z,14.17
2023-02-12T09:54:08.076Z,14.24
2023-02-12T09:56:37.428Z,14.20
2023-02-12T09:59:08.714Z,14.18
2023-02-12T10:01:36.326Z,14.18
2023-02-12T10:04:05.332Z,14.40
2023-02-12T10:06:36.997Z,14.54
2023-02-12T10:09:21.974Z,14.62
2023-02-12T10:12:03.578Z,14.50
2023-02-12T10:14:54.983Z,14.63
2023-02-12T10:17:46.223Z,14.59
2023-02-12T10:20:22.093Z,14.65
2023-02-12T10:23:07.730Z,14.54
2023-02-12T10:25:54.136Z,14.61
2023-02-12T10:28:41.860Z,14.57
2023-02-12T10:31:35.200Z,14.56
2023-02-12T10:34:05.923Z,14.61
2023-02-12T10:36:48.066Z,14.90
2023-02-12T10:39:20.520Z,14.90
2023-02-12T10:42:06.405Z,15.00
2023-02-12T10:44:32.850Z,14.95
2023-02-12T10:46:59.416Z,15.18
2023-02-12T10:49:26.370Z,15.16
2023-02-12T10:52:27.380Z,15.13
2023-02-12T10:54:53.860Z,15.28
2023-02-12T10:57:26.489Z,15.22
2023-02-12T10:59:55.230Z,15.25
2023-02-12T11:02:23.768Z,15.45
2023-02-12T11:04:51.002Z,15.28
2023-02-12T11:07:17.891Z,15.07
2023-02-12T11:09:49.412Z,14.99
2023-02-12T11:12:36.291Z,15.10
2023-02-12T11:15:04.933Z,15.07
2023-02-12T11:17:37.825Z,15.04
2023-02-12T11:20:16.575Z,14.91
2023-02-12T11:22:58.627Z,15.15
2023-02-12T11:25:28.540Z,15.18
2023-02-12T11:28:04.474Z,15.23
2023-02-12T11:30:31.663Z,15.33
2023-02-12T11:33:24.813Z,15.34
2023-02-12T11:36:00.976Z,15.63
2023-02-12T11:38:37.023Z,15.64
2023-02-12T11:41:21.365Z,15.44
2023-02-12T11:43:48.008Z,15.58
2023-02-12T11:46:20.423Z,15.26
2023-02-12T11:48:47.500Z,15.32
2023-02-12T11:51:25.142Z,15.20
2023-02-12T11:53:53.450Z,15.24
2023-02-12T11:56:20.784Z,15.37
2023-02-12T11:58:48.765Z,15.17
2023-02-12T12:01:22.556Z,15.09
2023-02-12T12:04:04.640Z,15.04
2023-02-12T12:06:50.893Z,14.99
2023-02-12T12:09:40.013Z,14.94
2023-02-12T12:12:06.473Z,15.02
2023-02-12T12:14:56.241Z,15.00
2023-02-12T12:17:44.805Z,15.10
2023-02-12T12:20:16.218Z,14.99
2023-02-12T12:23:00.773Z,14.99
2023-02-12T12:25:33.166Z,15.04
2023-02-12T12:28:18.040Z,15.01
2023-02-12T12:31:09.151Z,14.78
2023-02-12T12:33:51.829Z,14.80
2023-02-12T12:36:24.454Z,14.85
2023-02-12T12:39:12.213Z,15.02
2023-02-12T12:41:56.949Z,15.20
2023-02-12T12:44:44.738Z,14.86
2023-02-12T12:47:15.620Z,14.61
2023-02-12T12:50:21.194Z,14.96
2023-02-12T12:52:52.036Z,14.88
2023-02-12T12:55:27.862Z,14.76
2023-02-12T12:58:07.023Z,14.59
2023-02-12T13:00:45.355Z,14.81
2023-02-12T13:03:30.070Z,14.37
2023-02-12T13:06:17.892Z,14.30
2023-02-12T13:09:03.718Z,14.19
2023-02-12T13:11:34.616Z,14.47
2023-02-12T13:14:14.989Z,14.54
2023-02-12T13:17:03.683Z,14.70
2023-02-12T13:19:39.178Z,14.71
2023-02-12T13:22:26.434Z,14.85
2023-02-12T13:25:04.519Z,14.95
2023-02-12T13:27:35.349Z,14.73
2023-02-12T13:30:06.321Z,14.70
2023-02-12T13:32:36.661Z,14.51
2023-02-12T13:35:05.409Z,14.04
2023-02-12T13:37:45.239Z,14.07
2023-02-12T13:40:18.076Z,14.03
2023-02-12T13:43:15.906Z,14.01
2023-02-12T13:45:56.133Z,14.13
2023-02-12T13:48:34.790Z,14.14
2023-02-12T13:51:14.996Z,13.94
2023-02-12T13:54:02.669Z,13.93
2023-02-12T13:56:41.412Z,13.56
2023-02-12T13:59:32.790Z,13.94
2023-02-12T14:02:02.392Z,13.90
2023-02-12T14:04:34.152Z,14.00
2023-02-12T14:07:11.012Z,14.08
2023-02-12T14:09:59.893Z,14.17
2023-02-12T14:12:26.334Z,14.19
2023-02-12T14:14:55.639Z,14.04
2023-02-12T14:17:28.031Z,14.23
2023-02-12T14:20:06.881Z,14.27
2023-02-12T14:22:57.315Z,14.16
2023-02-12T14:25:23.685Z,14.19
2023-02-12T14:27:50.583Z,14.32
2023-02-12T14:30:16.951Z,14.19
2023-02-12T14:32:55.852Z,13.94
2023-02-12T14:35:34.247Z,14.33
2023-02-12T14:38:03.011Z,14.59
2023-02-12T14:40:36.556Z,14.55
2023-02-12T14:43:05.089Z,14.58
2023-02-12T14:45:37.864Z,14.72
2023-02-12T14:48:05.070Z,14.59
2023-02-12T14:50:38.886Z,14.39
2023-02-12T14:53:24.069Z,14.62
2023-02-12T14:55:51.683Z,14.55
2023-02-12T14:58:20.591Z,14.17
2023-02-12T15:00:49.125Z,14.40
2023-02-12T15:03:25.108Z,14.38
2023-02-12T15:05:58.346Z,14.11
2023-02-12T15:08:42.639Z,14.24
2023-02-12T15:11:28.149Z,14.19
2023-02-12T15:14:00.493Z,14.36
2023-02-12T15:16:35.145Z,14.29
2023-02-12T15:19:13.655Z,14.56
2023-02-12T15:21:40.813Z,14.56
2023-02-12T15:24:12.450Z,14.43
2023-02-12T15:26:45.280Z,14.44
2023-02-12T15:29:30.799Z,14.17
2023-02-12T15:31:59.211Z,14.17
2023-02-12T15:34:29.063Z,14.14
2023-02-12T15:36:57.855Z,14.12
2023-02-12T15:39:25.261Z,14.26
2023-02-12T15:41:52.210Z,14.13
2023-02-12T15:44:21.641Z,14.05
2023-02-12T15:47:12.230Z,14.15
2023-02-12T15:49:40.505Z,13.78
2023-02-12T15:52:20.302Z,13.86
2023-02-12T15:54:47.920Z,13.99
2023-02-12T15:57:21.602Z,14.01
2023-02-12T15:59:57.171Z,14.06
2023-02-12T16:02:29.477Z,14.11
2023-02-12T16:04:56.950Z,14.08
2023-02-12T16:07:24.680Z,14.06
2023-02-12T16:09:53.704Z,14.01
2023-02-12T16:12:22.673Z,13.90
2023-02-12T16:14:50.540Z,14.04
2023-02-12T16:17:26.173Z,13.96
2023-02-12T16:20:00.967Z,13.85
2023-02-12T16:22:37.176Z,14.06
2023-02-12T16:25:05.243Z,13.95
2023-02-12T16:27:33.904Z,14.05
2023-02-12T16:30:03.673Z,14.01
2023-02-12T16:32:42.634Z,13.83
2023-02-12T16:35:14.852Z,13.85
2023-02-12T16:37:44.384Z,13.96
2023-02-12T16:40:21.525Z,13.90
2023-02-12T16:42:47.881Z,14.01
2023-02-12T16:45:26.533Z,13.90
2023-02-12T16:48:12.998Z,13.83
2023-02-12T16:50:46.388Z,13.81
2023-02-12T16:53:30.011Z,13.77
2023-02-12T16:55:56.966Z,13.78
2023-02-12T16:58:25.059Z,13.98
2023-02-12T17:00:52.239Z,13.79
2023-02-12T17:03:19.275Z,14.05
2023-02-12T17:05:46.113Z,14.14
2023-02-12T17:08:15.011Z,14.09
2023-02-12T17:10:41.621Z,14.04
2023-02-12T17:13:09.212Z,13.94
2023-02-12T17:15:43.693Z,14.06
2023-02-12T17:18:11.462Z,14.07
2023-02-12T17:20:38.613Z,14.06
2023-02-12T17:23:05.250Z,14.09
2023-02-12T17:25:32.265Z,13.91
2023-02-12T17:27:59.015Z,13.94
2023-02-12T17:30:26.750Z,13.97
2023-02-12T17:32:53.239Z,13.77
2023-02-12T17:35:19.644Z,14.24
2023-02-12T17:37:47.799Z,14.19
2023-02-12T17:40:14.550Z,14.06
2023-02-12T17:42:41.032Z,14.09
2023-02-12T17:45:07.967Z,14.03
2023-02-12T17:47:39.836Z,13.93
2023-02-12T17:50:11.710Z,13.99
2023-02-12T17:52:38.268Z,14.00
2023-02-12T17:55:05.559Z,13.96
2023-02-12T17:57:32.173Z,13.86
2023-02-12T17:59:58.723Z,13.90
2023-02-12T18:02:25.393Z,13.90
2023-02-12T18:04:51.859Z,13.87
2023-02-12T18:07:18.553Z,13.83
2023-02-12T18:09:45.072Z,13.80
2023-02-12T18:12:11.669Z,13.83
2023-02-12T18:14:38.266Z,13.79
2023-02-12T18:17:04.689Z,14.00
2023-02-12T18:19:32.817Z,14.17
2023-02-12T18:21:59.280Z,14.22
2023-02-12T18:24:25.801Z,14.19
2023-02-12T18:26:52.390Z,14.16
2023-02-12T18:29:18.929Z,14.15
2023-02-12T18:31:45.562Z,14.15
2023-02-12T18:34:12.676Z,13.98
2023-02-12T18:36:39.376Z,14.09
2023-02-12T18:39:05.826Z,14.03
2023-02-12T18:41:33.136Z,13.93
2023-02-12T18:43:59.812Z,13.89
2023-02-12T18:46:28.852Z,13.80
2023-02-12T18:48:55.643Z,13.80
2023-02-12T18:51:25.048Z,13.83
2023-02-12T18:53:56.265Z,13.70
2023-02-12T18:56:23.096Z,13.61
2023-02-12T18:58:54.808Z,13.80
2023-02-12T19:01:21.364Z,13.81
2023-02-12T19:03:50.657Z,13.76
2023-02-12T19:06:17.133Z,13.56
2023-02-12T19:08:43.686Z,13.66
2023-02-12T19:11:11.549Z,14.19
2023-02-12T19:13:38.318Z,14.39
2023-02-12T19:16:10.503Z,14.42
2023-02-12T19:18:37.360Z,14.31
2023-02-12T19:21:08.603Z,14.01
2023-02-12T19:23:35.528Z,13.79
2023-02-12T19:26:07.997Z,13.67
2023-02-12T19:28:35.112Z,14.13
2023-02-12T19:31:24.054Z,13.77
2023-02-12T19:33:54.766Z,13.75
2023-02-12T19:36:21.500Z,13.72
2023-02-12T19:38:48.450Z,13.66
2023-02-12T19:41:17.556Z,13.62
2023-02-12T19:43:44.638Z,13.62
2023-02-12T19:46:18.837Z,13.79
2023-02-12T19:48:47.398Z,13.50
2023-02-12T19:51:20.190Z,13.26
2023-02-12T19:53:47.662Z,13.46
2023-02-12T19:56:15.417Z,13.56
2023-02-12T19:58:42.391Z,13.44
2023-02-12T20:01:17.284Z,13.56
2023-02-12T20:03:44.564Z,13.48
2023-02-12T20:06:14.198Z,13.50
2023-02-12T20:08:41.701Z,13.51
2023-02-12T20:11:15.561Z,13.39
2023-02-12T20:13:42.616Z,13.33
2023-02-12T20:16:18.214Z,13.31
2023-02-12T20:18:45.870Z,13.22
2023-02-12T20:21:20.785Z,13.33
2023-02-12T20:23:47.413Z,13.62
2023-02-12T20:26:14.680Z,13.61
2023-02-12T20:28:42.860Z,13.59
2023-02-12T20:31:22.413Z,13.67
2023-02-12T20:33:53.778Z,13.83
2023-02-12T20:36:20.286Z,13.73
2023-02-12T20:38:51.843Z,13.68
2023-02-12T20:41:18.515Z,13.61
2023-02-12T20:43:45.251Z,13.59
2023-02-12T20:46:17.608Z,13.60
2023-02-12T20:48:44.533Z,13.55
2023-02-12T20:51:13.601Z,13.55
2023-02-12T20:53:40.827Z,13.55
2023-02-12T20:56:16.149Z,13.49
2023-02-12T20:58:46.500Z,13.42
2023-02-12T21:01:35.196Z,13.39
2023-02-12T21:04:06.571Z,13.28
2023-02-12T21:06:33.579Z,13.15
2023-02-12T21:09:01.316Z,13.21
2023-02-12T21:11:28.911Z,13.33
2023-02-12T21:14:02.261Z,13.29
2023-02-12T21:16:38.008Z,13.44
2023-02-12T21:19:04.854Z,13.80
2023-02-12T21:21:34.913Z,14.08
2023-02-12T21:24:03.190Z,13.83
2023-02-12T21:26:31.276Z,13.75
2023-02-12T21:28:59.712Z,13.56
2023-02-12T21:31:28.764Z,13.21
2023-02-12T21:33:56.446Z,13.09
2023-02-12T21:36:25.904Z,13.08
2023-02-12T21:38:52.938Z,13.26
2023-02-12T21:41:25.101Z,13.76
2023-02-12T21:43:58.219Z,13.26
2023-02-12T21:46:26.205Z,13.03
2023-02-12T21:48:54.080Z,12.92
2023-02-12T21:51:23.645Z,12.92
2023-02-12T21:53:53.774Z,12.93
2023-02-12T21:56:20.905Z,12.93
2023-02-12T21:58:48.517Z,12.96
2023-02-12T22:01:35.399Z,13.04
2023-02-12T22:04:02.667Z,12.92
2023-02-12T22:06:29.087Z,13.04
2023-02-12T22:08:59.952Z,12.82
2023-02-12T22:11:27.474Z,12.88
2023-02-12T22:13:55.743Z,12.87
2023-02-12T22:16:25.057Z,12.92
2023-02-12T22:18:57.558Z,12.87
2023-02-12T22:21:25.965Z,12.69
2023-02-12T22:23:53.174Z,12.68
2023-02-12T22:26:22.363Z,12.77
2023-02-12T22:28:50.816Z,12.83
2023-02-12T22:31:22.898Z,12.71
2023-02-12T22:33:50.789Z,12.71
2023-02-12T22:36:18.110Z,12.70
2023-02-12T22:38:45.043Z,12.62
2023-02-12T22:41:11.484Z,12.60
2023-02-12T22:43:39.480Z,12.55
2023-02-12T22:46:07.172Z,12.51
2023-02-12T22:48:33.877Z,12.62
2023-02-12T22:51:00.386Z,12.61
2023-02-12T22:53:27.171Z,12.47
2023-02-12T22:55:53.766Z,12.42
2023-02-12T22:58:20.196Z,12.39
2023-02-12T23:00:46.677Z,12.56
2023-02-12T23:03:13.085Z,12.42
2023-02-12T23:05:39.552Z,12.35
2023-02-12T23:08:06.387Z,12.25
2023-02-12T23:10:32.891Z,12.12
2023-02-12T23:12:59.428Z,12.29
2023-02-12T23:15:25.905Z,12.18
2023-02-12T23:17:52.644Z,12.32
2023-02-12T23:20:19.282Z,12.39
2023-02-12T23:22:45.959Z,12.31
2023-02-12T23:25:12.394Z,12.44
2023-02-12T23:27:39.195Z,12.53
2023-02-12T23:30:06.291Z,12.55
2023-02-12T23:32:32.685Z,12.54
2023-02-12T23:34:59.098Z,12.60
2023-02-12T23:37:25.632Z,12.53
2023-02-12T23:39:52.076Z,12.57
2023-02-12T23:42:19.056Z,12.41
2023-02-12T23:44:45.639Z,12.37
2023-02-12T23:47:12.080Z,12.37
2023-02-12T23:49:38.893Z,12.33
2023-02-12T23:52:05.317Z,12.38
2023-02-12T23:54:31.852Z,12.28
2023-02-12T23:56:58.329Z,12.32
2023-02-12T23:59:25.467Z,12.36
